createdAt,value
2017-09-29T00:02:14.334Z,14.90
2017-09-29T00:04:41.064Z,14.90
2017-09-29T00:07:07.769Z,14.70
2017-09-29T00:09:33.761Z,14.70
2017-09-29T00:11:59.714Z,14.80
2017-09-29T00:14:26.442Z,14.80
2017-09-29T00:16:52.410Z,14.80
2017-09-29T00:19:18.402Z,14.80
2017-09-29T00:21:44.379Z,14.80
2017-09-29T00:24:10.385Z,14.70
2017-09-29T00:26:36.347Z,14.80
2017-09-29T00:29:02.303Z,14.70
2017-09-29T00:31:28.281Z,14.70
2017-09-29T00:33:54.231Z,14.70
2017-09-29T00:36:20.202Z,14.80
2017-09-29T00:38:46.967Z,14.70
2017-09-29T00:41:12.910Z,14.70
2017-09-29T00:43:38.867Z,14.70
2017-09-29T00:46:04.834Z,14.60
2017-09-29T00:48:30.786Z,14.60
2017-09-29T00:50:56.767Z,14.60
2017-09-29T00:53:22.702Z,14.60
2017-09-29T00:55:48.685Z,14.60
2017-09-29T00:58:14.683Z,14.50
2017-09-29T01:00:41.368Z,14.50
2017-09-29T01:03:07.354Z,14.40
2017-09-29T01:05:33.305Z,14.40
2017-09-29T01:07:59.247Z,14.40
2017-09-29T01:10:25.217Z,14.40
2017-09-29T01:12:51.910Z,14.30
2017-09-29T01:15:17.890Z,14.30
2017-09-29T01:17:43.853Z,14.30
2017-09-29T01:20:10.537Z,14.30
2017-09-29T01:22:36.509Z,14.30
2017-09-29T01:25:02.453Z,14.20
2017-09-29T01:27:28.435Z,14.10
2017-09-29T01:29:54.373Z,14.20
2017-09-29T01:32:20.318Z,14.10
2017-09-29T01:34:47.042Z,14.30
2017-09-29T01:37:13.738Z,14.20
2017-09-29T01:39:39.726Z,14.20
2017-09-29T01:42:05.666Z,14.20
2017-09-29T01:44:31.630Z,14.20
2017-09-29T01:46:57.634Z,14.20
2017-09-29T01:49:23.618Z,14.20
2017-09-29T01:51:49.626Z,14.20
2017-09-29T01:54:15.630Z,14.10
2017-09-29T01:56:42.319Z,14.20
2017-09-29T01:59:08.277Z,14.20
2017-09-29T02:01:34.259Z,14.20
2017-09-29T02:04:00.970Z,14.20
2017-09-29T02:06:26.925Z,14.20
2017-09-29T02:08:52.893Z,14.20
2017-09-29T02:11:18.874Z,14.20
2017-09-29T02:13:44.832Z,14.20
2017-09-29T02:16:10.778Z,14.20
2017-09-29T02:18:36.775Z,14.20
2017-09-29T02:21:02.757Z,14.20
2017-09-29T02:23:28.701Z,14.20
2017-09-29T02:25:54.674Z,14.10
2017-09-29T02:28:20.654Z,14.10
2017-09-29T02:30:46.611Z,14.20
2017-09-29T02:33:12.579Z,14.20
2017-09-29T02:35:39.300Z,14.00
2017-09-29T02:38:05.277Z,14.00
2017-09-29T02:40:31.222Z,14.00
2017-09-29T02:42:57.937Z,14.10
2017-09-29T02:45:23.909Z,14.10
2017-09-29T02:47:49.890Z,14.10
2017-09-29T02:50:15.882Z,13.90
2017-09-29T02:52:42.562Z,14.00
2017-09-29T02:55:08.514Z,14.00
2017-09-29T02:57:39.858Z,14.00
2017-09-29T03:00:11.569Z,14.00
2017-09-29T03:02:39.083Z,14.10
2017-09-29T03:05:07.125Z,14.00
2017-09-29T03:07:33.121Z,14.00
2017-09-29T03:09:59.054Z,14.10
2017-09-29T03:12:25.034Z,14.00
2017-09-29T03:14:50.985Z,13.90
2017-09-29T03:17:16.978Z,13.90
2017-09-29T03:19:42.935Z,14.00
2017-09-29T03:22:08.882Z,13.90
2017-09-29T03:24:34.862Z,13.90
2017-09-29T03:27:01.563Z,14.00
2017-09-29T03:29:27.555Z,14.00
2017-09-29T03:31:53.646Z,13.90
2017-09-29T03:34:19.626Z,13.90
2017-09-29T03:36:45.620Z,13.90
2017-09-29T03:39:12.310Z,13.80
2017-09-29T03:41:38.258Z,13.80
2017-09-29T03:44:05.018Z,13.90
2017-09-29T03:46:30.998Z,13.90
2017-09-29T03:48:57.701Z,13.90
2017-09-29T03:51:24.421Z,13.90
2017-09-29T03:53:52.042Z,13.90
2017-09-29T03:56:18.782Z,13.90
2017-09-29T03:58:45.882Z,13.90
2017-09-29T04:01:11.850Z,13.80
2017-09-29T04:03:37.830Z,13.80
2017-09-29T04:06:03.785Z,13.70
2017-09-29T04:08:29.779Z,13.70
2017-09-29T04:10:56.564Z,13.70
2017-09-29T04:13:22.602Z,13.70
2017-09-29T04:15:48.550Z,13.60
2017-09-29T04:18:14.499Z,13.70
2017-09-29T04:20:40.520Z,13.70
2017-09-29T04:23:06.542Z,13.70
2017-09-29T04:25:33.231Z,13.60
2017-09-29T04:27:59.286Z,13.60
2017-09-29T04:30:26.009Z,13.60
2017-09-29T04:32:59.731Z,13.60
2017-09-29T04:35:25.716Z,13.60
2017-09-29T04:37:52.446Z,13.50
2017-09-29T04:40:18.434Z,13.50
2017-09-29T04:42:45.206Z,13.50
2017-09-29T04:45:11.215Z,13.40
2017-09-29T04:47:37.166Z,13.50
2017-09-29T04:50:03.113Z,13.50
2017-09-29T04:52:29.093Z,13.40
2017-09-29T04:54:55.845Z,13.40
2017-09-29T04:57:21.789Z,13.40
2017-09-29T04:59:47.761Z,13.30
2017-09-29T05:02:13.750Z,13.40
2017-09-29T05:04:40.442Z,13.40
2017-09-29T05:07:06.435Z,13.40
2017-09-29T05:09:32.415Z,13.40
2017-09-29T05:11:58.449Z,13.40
2017-09-29T05:14:24.439Z,13.30
2017-09-29T05:16:50.493Z,13.20
2017-09-29T05:19:16.490Z,13.00
2017-09-29T05:21:42.563Z,13.10
2017-09-29T05:24:08.501Z,13.10
2017-09-29T05:26:34.514Z,13.20
2017-09-29T05:29:00.485Z,13.20
2017-09-29T05:31:26.474Z,13.30
2017-09-29T05:33:53.161Z,13.30
2017-09-29T05:36:19.142Z,13.30
2017-09-29T05:38:45.139Z,13.40
2017-09-29T05:41:11.094Z,13.30
2017-09-29T05:43:37.073Z,13.30
2017-09-29T05:46:03.061Z,13.20
2017-09-29T05:48:29.009Z,13.20
2017-09-29T05:50:54.985Z,13.20
2017-09-29T05:53:21.018Z,13.20
2017-09-29T05:55:47.093Z,13.20
2017-09-29T05:58:13.045Z,13.20
2017-09-29T06:00:39.038Z,13.20
2017-09-29T06:03:05.001Z,13.20
2017-09-29T06:05:31.695Z,13.20
2017-09-29T06:07:57.678Z,13.20
2017-09-29T06:10:23.674Z,13.20
2017-09-29T06:12:49.653Z,13.10
2017-09-29T06:15:16.387Z,13.20
2017-09-29T06:17:42.339Z,13.30
2017-09-29T06:20:08.330Z,13.20
2017-09-29T06:22:34.297Z,13.30
2017-09-29T06:25:01.026Z,13.30
2017-09-29T06:27:27.734Z,13.20
2017-09-29T06:29:53.739Z,13.20
2017-09-29T06:32:19.690Z,13.30
2017-09-29T06:34:45.717Z,13.30
2017-09-29T06:37:11.673Z,13.40
2017-09-29T06:39:37.617Z,13.50
2017-09-29T06:42:03.609Z,13.50
2017-09-29T06:44:29.561Z,13.60
2017-09-29T06:46:55.562Z,13.70
2017-09-29T06:49:21.509Z,13.70
2017-09-29T06:51:47.469Z,13.80
2017-09-29T06:54:13.433Z,13.80
2017-09-29T06:56:40.165Z,14.00
2017-09-29T06:59:06.858Z,14.00
2017-09-29T07:01:32.810Z,14.00
2017-09-29T07:03:58.809Z,14.10
2017-09-29T07:06:25.510Z,14.30
2017-09-29T07:08:51.465Z,14.30
2017-09-29T07:11:17.454Z,14.40
2017-09-29T07:13:44.154Z,14.50
2017-09-29T07:16:10.155Z,14.50
2017-09-29T07:18:36.106Z,14.50
2017-09-29T07:21:02.073Z,14.60
2017-09-29T07:23:28.050Z,14.60
2017-09-29T07:25:55.498Z,14.70
2017-09-29T07:28:29.870Z,14.80
2017-09-29T07:31:03.182Z,14.80
2017-09-29T07:33:29.193Z,14.90
2017-09-29T07:35:55.141Z,15.00
2017-09-29T07:38:21.833Z,15.10
2017-09-29T07:40:47.863Z,15.10
2017-09-29T07:43:13.810Z,15.20
2017-09-29T07:45:39.762Z,15.20
2017-09-29T07:48:05.757Z,15.30
2017-09-29T07:50:31.706Z,15.30
2017-09-29T07:52:58.417Z,15.40
2017-09-29T07:55:24.413Z,15.40
2017-09-29T07:57:50.378Z,15.50
2017-09-29T08:00:16.330Z,15.50
2017-09-29T08:02:42.310Z,15.60
2017-09-29T08:05:08.258Z,15.70
2017-09-29T08:07:34.234Z,15.70
2017-09-29T08:10:00.178Z,15.80
2017-09-29T08:12:26.211Z,15.80
2017-09-29T08:14:52.882Z,16.00
2017-09-29T08:17:18.849Z,16.00
2017-09-29T08:19:44.847Z,16.10
2017-09-29T08:22:11.570Z,16.10
2017-09-29T08:24:37.510Z,16.10
2017-09-29T08:27:03.506Z,16.20
2017-09-29T08:29:29.463Z,16.20
2017-09-29T08:31:55.457Z,16.40
2017-09-29T08:34:21.430Z,16.40
2017-09-29T08:36:47.403Z,16.40
2017-09-29T08:39:13.398Z,16.50
2017-09-29T08:41:39.350Z,16.60
2017-09-29T08:44:05.333Z,16.70
2017-09-29T08:46:32.062Z,16.80
2017-09-29T08:48:58.781Z,16.90
2017-09-29T08:51:24.729Z,16.90
2017-09-29T08:53:50.714Z,16.90
2017-09-29T08:56:17.426Z,17.00
2017-09-29T08:58:44.170Z,17.10
2017-09-29T09:01:10.874Z,17.10
2017-09-29T09:03:36.826Z,17.10
2017-09-29T09:06:02.811Z,17.20
2017-09-29T09:08:29.541Z,17.30
2017-09-29T09:10:55.490Z,17.30
2017-09-29T09:13:21.441Z,17.30
2017-09-29T09:15:48.197Z,17.40
2017-09-29T09:18:14.138Z,17.40
2017-09-29T09:20:40.133Z,17.60
2017-09-29T09:23:06.081Z,17.60
2017-09-29T09:25:32.032Z,17.70
2017-09-29T09:27:58.030Z,17.80
2017-09-29T09:30:23.986Z,17.80
2017-09-29T09:32:49.938Z,17.90
2017-09-29T09:35:15.962Z,18.00
2017-09-29T09:37:41.941Z,18.10
2017-09-29T09:40:08.637Z,18.20
2017-09-29T09:42:34.627Z,18.10
2017-09-29T09:45:00.573Z,18.30
2017-09-29T09:47:26.523Z,18.30
2017-09-29T09:49:52.518Z,18.40
2017-09-29T09:52:18.471Z,18.40
2017-09-29T09:54:44.421Z,18.50
2017-09-29T09:57:11.144Z,18.50
2017-09-29T09:59:37.873Z,18.60
2017-09-29T10:02:04.570Z,18.70
2017-09-29T10:04:30.517Z,18.70
2017-09-29T10:06:56.528Z,18.80
2017-09-29T10:09:22.482Z,18.80
2017-09-29T10:11:48.470Z,18.90
2017-09-29T10:14:14.449Z,18.90
2017-09-29T10:16:40.418Z,18.90
2017-09-29T10:19:06.461Z,19.00
2017-09-29T10:21:33.150Z,19.20
2017-09-29T10:23:59.097Z,19.10
2017-09-29T10:26:25.070Z,19.30
2017-09-29T10:28:51.070Z,19.20
2017-09-29T10:31:17.027Z,19.20
2017-09-29T10:33:42.981Z,19.30
2017-09-29T10:36:08.941Z,19.40
2017-09-29T10:38:34.925Z,19.50
2017-09-29T10:41:01.608Z,19.60
2017-09-29T10:43:27.558Z,19.60
2017-09-29T10:45:54.286Z,19.70
2017-09-29T10:48:20.978Z,19.80
2017-09-29T10:50:47.000Z,19.70
2017-09-29T10:53:12.953Z,19.80
2017-09-29T10:55:38.925Z,19.90
2017-09-29T10:58:05.054Z,19.90
2017-09-29T11:00:31.789Z,20.00
2017-09-29T11:02:57.741Z,20.00
2017-09-29T11:05:23.742Z,19.90
2017-09-29T11:07:49.713Z,20.00
2017-09-29T11:10:15.670Z,20.10
2017-09-29T11:12:41.674Z,20.10
2017-09-29T11:15:07.682Z,20.10
2017-09-29T11:17:33.634Z,20.30
2017-09-29T11:20:00.321Z,20.40
2017-09-29T11:22:26.311Z,20.40
2017-09-29T11:24:52.258Z,20.50
2017-09-29T11:27:18.249Z,20.50
2017-09-29T11:29:44.208Z,20.60
2017-09-29T11:32:10.197Z,20.60
2017-09-29T11:34:36.884Z,20.80
2017-09-29T11:37:02.885Z,20.80
2017-09-29T11:39:28.873Z,20.80
2017-09-29T11:41:54.826Z,20.80
2017-09-29T11:44:20.779Z,20.80
2017-09-29T11:46:46.826Z,20.80
2017-09-29T11:49:12.774Z,20.90
2017-09-29T11:51:39.466Z,21.00
2017-09-29T11:54:05.470Z,21.00
2017-09-29T11:56:31.421Z,21.00
2017-09-29T11:58:58.121Z,21.20
2017-09-29T12:01:24.101Z,21.20
2017-09-29T12:03:50.057Z,21.20
2017-09-29T12:06:16.809Z,21.40
2017-09-29T12:08:42.761Z,21.30
2017-09-29T12:11:08.709Z,21.50
2017-09-29T12:13:34.702Z,22.00
2017-09-29T12:16:01.406Z,23.60
2017-09-29T12:18:27.402Z,23.60
2017-09-29T12:20:53.414Z,24.60
2017-09-29T12:23:19.377Z,24.50
2017-09-29T12:25:45.373Z,24.90
2017-09-29T12:28:12.105Z,26.20
2017-09-29T12:30:38.850Z,26.80
2017-09-29T12:33:04.825Z,26.80
2017-09-29T12:35:31.509Z,27.30
2017-09-29T12:37:57.494Z,27.20
2017-09-29T12:40:23.526Z,26.60
2017-09-29T12:42:49.494Z,25.60
2017-09-29T12:45:15.655Z,25.50
2017-09-29T12:47:41.528Z,25.70
2017-09-29T12:50:07.477Z,26.00
2017-09-29T12:52:33.425Z,26.30
2017-09-29T12:55:00.163Z,26.70
2017-09-29T12:57:26.122Z,26.70
2017-09-29T12:59:52.101Z,26.20
2017-09-29T13:02:18.066Z,25.70
2017-09-29T13:04:44.802Z,26.10
2017-09-29T13:07:11.502Z,25.80
2017-09-29T13:09:37.494Z,25.80
2017-09-29T13:12:03.442Z,25.90
2017-09-29T13:14:30.169Z,27.80
2017-09-29T13:16:56.861Z,27.10
2017-09-29T13:19:22.856Z,27.10
2017-09-29T13:21:48.813Z,26.50
2017-09-29T13:24:14.777Z,26.50
2017-09-29T13:26:40.754Z,26.80
2017-09-29T13:29:06.710Z,25.50
2017-09-29T13:31:32.709Z,25.80
2017-09-29T13:33:58.698Z,26.20
2017-09-29T13:36:24.673Z,26.60
2017-09-29T13:38:50.683Z,27.30
2017-09-29T13:41:16.765Z,26.80
2017-09-29T13:43:43.458Z,26.40
2017-09-29T13:46:09.446Z,26.30
2017-09-29T13:48:35.414Z,26.70
2017-09-29T13:51:01.367Z,27.30
2017-09-29T13:53:27.353Z,26.70
2017-09-29T13:55:53.330Z,25.80
2017-09-29T13:58:19.285Z,26.50
2017-09-29T14:00:45.281Z,25.70
2017-09-29T14:03:11.233Z,25.90
2017-09-29T14:05:37.218Z,25.80
2017-09-29T14:08:03.234Z,26.00
2017-09-29T14:10:29.182Z,26.30
2017-09-29T14:12:55.173Z,26.60
2017-09-29T14:15:21.121Z,27.60
2017-09-29T14:17:47.810Z,26.40
2017-09-29T14:20:13.797Z,26.40
2017-09-29T14:22:39.757Z,25.40
2017-09-29T14:25:05.774Z,25.20
2017-09-29T14:27:31.746Z,25.30
2017-09-29T14:29:58.477Z,24.20
2017-09-29T14:32:24.465Z,24.20
2017-09-29T14:34:51.154Z,23.90
2017-09-29T14:37:17.133Z,23.90
2017-09-29T14:39:43.145Z,23.70
2017-09-29T14:42:09.100Z,23.90
2017-09-29T14:44:35.051Z,23.90
2017-09-29T14:47:01.075Z,24.10
2017-09-29T14:49:27.050Z,23.80
2017-09-29T14:51:53.781Z,23.50
2017-09-29T14:54:20.469Z,23.40
2017-09-29T14:56:46.417Z,23.40
2017-09-29T14:59:12.414Z,23.40
2017-09-29T15:01:39.104Z,23.10
2017-09-29T15:04:05.106Z,23.00
2017-09-29T15:06:31.131Z,22.70
2017-09-29T15:08:57.087Z,23.00
2017-09-29T15:11:23.065Z,23.10
2017-09-29T15:13:49.793Z,22.60
2017-09-29T15:16:16.511Z,22.70
2017-09-29T15:18:42.581Z,22.70
2017-09-29T15:21:08.541Z,22.60
2017-09-29T15:23:35.245Z,22.20
2017-09-29T15:26:01.262Z,22.20
2017-09-29T15:28:27.208Z,22.20
2017-09-29T15:30:53.154Z,22.00
2017-09-29T15:33:19.177Z,22.00
2017-09-29T15:35:45.130Z,21.80
2017-09-29T15:38:11.082Z,21.80
2017-09-29T15:40:37.077Z,22.00
2017-09-29T15:43:03.103Z,21.90
2017-09-29T15:45:29.058Z,21.70
2017-09-29T15:47:55.014Z,21.70
2017-09-29T15:50:21.013Z,21.50
2017-09-29T15:52:46.953Z,21.50
2017-09-29T15:55:12.905Z,21.40
2017-09-29T15:57:38.885Z,21.50
2017-09-29T16:00:05.582Z,21.40
2017-09-29T16:02:31.595Z,21.40
2017-09-29T16:04:57.625Z,21.50
2017-09-29T16:07:25.053Z,21.00
2017-09-29T16:09:51.029Z,21.00
2017-09-29T16:12:16.974Z,20.90
2017-09-29T16:14:42.974Z,20.70
2017-09-29T16:17:08.929Z,20.70
2017-09-29T16:19:34.885Z,20.80
2017-09-29T16:22:00.882Z,20.50
2017-09-29T16:24:26.838Z,20.60
2017-09-29T16:26:53.570Z,20.70
2017-09-29T16:29:19.517Z,20.70
2017-09-29T16:31:45.469Z,20.50
2017-09-29T16:34:12.230Z,20.60
2017-09-29T16:36:38.229Z,20.50
2017-09-29T16:39:04.213Z,20.50
2017-09-29T16:41:30.914Z,20.40
2017-09-29T16:43:57.649Z,20.40
2017-09-29T16:46:23.598Z,20.40
2017-09-29T16:48:49.629Z,20.30
2017-09-29T16:51:15.621Z,20.50
2017-09-29T16:53:41.570Z,20.50
2017-09-29T16:56:07.539Z,20.40
2017-09-29T16:58:33.515Z,20.40
2017-09-29T17:01:00.237Z,20.40
2017-09-29T17:03:27.021Z,20.50
2017-09-29T17:05:52.986Z,20.50
2017-09-29T17:08:18.932Z,20.40
2017-09-29T17:10:44.911Z,20.40
2017-09-29T17:13:10.857Z,20.30
2017-09-29T17:15:43.809Z,20.40
2017-09-29T17:18:09.785Z,20.30
2017-09-29T17:20:36.481Z,20.30
2017-09-29T17:23:03.222Z,20.30
2017-09-29T17:25:29.938Z,20.20
2017-09-29T17:27:55.936Z,20.20
2017-09-29T17:30:21.965Z,20.10
2017-09-29T17:32:48.678Z,19.90
2017-09-29T17:35:14.630Z,19.90
2017-09-29T17:37:40.614Z,19.90
2017-09-29T17:40:07.362Z,19.70
2017-09-29T17:42:33.392Z,19.70
2017-09-29T17:44:59.396Z,19.70
2017-09-29T17:47:25.358Z,19.60
2017-09-29T17:49:51.345Z,19.50
2017-09-29T17:52:18.094Z,19.40
2017-09-29T17:54:44.083Z,19.30
2017-09-29T17:57:10.778Z,19.20
2017-09-29T17:59:36.761Z,19.20
2017-09-29T18:02:02.721Z,19.10
2017-09-29T18:04:29.412Z,18.90
2017-09-29T18:06:55.394Z,18.90
2017-09-29T18:09:29.078Z,18.90
2017-09-29T18:11:55.079Z,18.90
2017-09-29T18:14:21.029Z,18.70
2017-09-29T18:16:46.989Z,18.60
2017-09-29T18:19:12.998Z,18.60
2017-09-29T18:21:38.943Z,18.60
2017-09-29T18:24:04.881Z,18.40
2017-09-29T18:26:31.610Z,18.40
2017-09-29T18:28:58.306Z,18.40
2017-09-29T18:31:24.293Z,18.30
2017-09-29T18:33:50.279Z,18.20
2017-09-29T18:36:16.238Z,18.10
2017-09-29T18:38:42.230Z,18.10
2017-09-29T18:41:08.212Z,18.10
2017-09-29T18:43:36.073Z,18.00
2017-09-29T18:46:04.074Z,17.90
2017-09-29T18:48:30.066Z,17.90
2017-09-29T18:50:56.014Z,17.80
2017-09-29T18:53:21.969Z,17.80
2017-09-29T18:55:47.954Z,17.70
2017-09-29T18:58:14.186Z,17.70
2017-09-29T19:00:40.174Z,17.70
2017-09-29T19:03:06.130Z,17.60
2017-09-29T19:05:32.106Z,17.60
2017-09-29T19:07:58.057Z,17.50
2017-09-29T19:10:24.061Z,17.50
2017-09-29T19:12:50.025Z,17.30
2017-09-29T19:15:15.985Z,17.30
2017-09-29T19:17:42.734Z,17.20
2017-09-29T19:20:08.685Z,17.20
2017-09-29T19:22:34.633Z,17.20
2017-09-29T19:25:01.437Z,17.10
2017-09-29T19:27:27.423Z,17.10
2017-09-29T19:29:53.372Z,16.90
2017-09-29T19:32:20.226Z,16.90
2017-09-29T19:34:46.190Z,16.80
2017-09-29T19:37:12.146Z,16.90
2017-09-29T19:39:38.142Z,16.90
2017-09-29T19:42:04.845Z,16.70
2017-09-29T19:44:30.840Z,16.70
2017-09-29T19:46:56.834Z,16.70
2017-09-29T19:49:22.791Z,16.70
2017-09-29T19:51:49.549Z,16.50
2017-09-29T19:54:15.680Z,16.50
2017-09-29T19:56:41.642Z,16.50
2017-09-29T19:59:07.626Z,16.50
2017-09-29T20:01:33.586Z,16.50
2017-09-29T20:03:59.578Z,16.50
2017-09-29T20:06:25.534Z,16.40
2017-09-29T20:08:51.494Z,16.40
2017-09-29T20:11:17.491Z,16.30
2017-09-29T20:13:43.454Z,16.20
2017-09-29T20:16:09.442Z,16.20
2017-09-29T20:18:35.424Z,16.10
2017-09-29T20:21:01.430Z,16.10
2017-09-29T20:23:27.391Z,16.10
2017-09-29T20:25:53.338Z,16.00
2017-09-29T20:28:19.337Z,15.90
2017-09-29T20:30:46.042Z,15.90
2017-09-29T20:33:12.040Z,15.80
2017-09-29T20:35:38.010Z,15.80
2017-09-29T20:38:03.957Z,15.80
2017-09-29T20:40:29.997Z,15.70
2017-09-29T20:42:56.732Z,15.60
2017-09-29T20:45:22.687Z,15.60
2017-09-29T20:47:48.682Z,15.60
2017-09-29T20:50:15.493Z,15.50
2017-09-29T20:52:41.437Z,15.50
2017-09-29T20:55:07.422Z,15.50
2017-09-29T20:57:33.378Z,15.50
2017-09-29T20:59:59.353Z,15.40
2017-09-29T21:02:25.354Z,15.20
2017-09-29T21:04:51.301Z,15.30
2017-09-29T21:07:18.390Z,15.30
2017-09-29T21:09:44.369Z,15.20
2017-09-29T21:12:10.325Z,15.20
2017-09-29T21:14:36.306Z,15.20
2017-09-29T21:17:02.298Z,15.20
2017-09-29T21:19:28.249Z,15.10
2017-09-29T21:21:54.238Z,15.10
2017-09-29T21:24:20.187Z,15.10
2017-09-29T21:26:46.162Z,15.00
2017-09-29T21:29:12.153Z,15.00
2017-09-29T21:31:38.093Z,15.00
2017-09-29T21:34:04.104Z,15.00
2017-09-29T21:36:30.057Z,14.90
2017-09-29T21:38:56.005Z,14.90
2017-09-29T21:41:22.018Z,14.90
2017-09-29T21:43:47.976Z,14.90
2017-09-29T21:46:14.255Z,14.80
2017-09-29T21:48:40.241Z,14.80
2017-09-29T21:51:07.002Z,14.70
2017-09-29T21:53:32.953Z,14.70
2017-09-29T21:55:58.931Z,14.60
2017-09-29T21:58:24.886Z,14.60
2017-09-29T22:00:51.625Z,14.50
2017-09-29T22:03:17.572Z,14.40
2017-09-29T22:05:43.558Z,14.60
2017-09-29T22:08:09.541Z,14.70
2017-09-29T22:10:36.265Z,14.60
2017-09-29T22:13:03.005Z,14.60
2017-09-29T22:15:28.949Z,14.60
2017-09-29T22:17:54.892Z,14.60
2017-09-29T22:20:20.889Z,14.50
2017-09-29T22:22:46.850Z,14.50
2017-09-29T22:25:12.801Z,14.40
2017-09-29T22:27:38.786Z,14.50
2017-09-29T22:30:04.734Z,14.50
2017-09-29T22:32:31.449Z,14.30
2017-09-29T22:34:57.393Z,14.30
2017-09-29T22:37:23.409Z,14.30
2017-09-29T22:39:49.363Z,14.30
2017-09-29T22:42:15.378Z,14.30
2017-09-29T22:44:41.334Z,14.20
2017-09-29T22:47:07.338Z,14.10
2017-09-29T22:49:33.282Z,14.10
2017-09-29T22:51:59.245Z,14.10
2017-09-29T22:54:25.225Z,14.10
2017-09-29T22:56:51.168Z,14.10
2017-09-29T22:59:17.157Z,14.00
2017-09-29T23:01:43.849Z,14.00
2017-09-29T23:04:09.812Z,13.90
2017-09-29T23:06:35.801Z,14.00
2017-09-29T23:09:02.535Z,14.00
2017-09-29T23:11:28.489Z,14.00
2017-09-29T23:13:54.429Z,14.00
2017-09-29T23:16:21.153Z,13.90
2017-09-29T23:18:47.105Z,13.90
2017-09-29T23:21:13.103Z,13.80
2017-09-29T23:23:39.793Z,13.80
2017-09-29T23:26:05.758Z,13.80
2017-09-29T23:28:31.744Z,13.80
2017-09-29T23:30:58.470Z,13.70
2017-09-29T23:33:25.214Z,13.70
2017-09-29T23:35:51.163Z,13.70
2017-09-29T23:38:17.117Z,13.60
2017-09-29T23:40:43.841Z,13.40
2017-09-29T23:43:10.565Z,13.40
2017-09-29T23:45:37.265Z,13.50
2017-09-29T23:48:03.223Z,13.50
2017-09-29T23:50:29.218Z,13.50
2017-09-29T23:52:55.173Z,13.60
2017-09-29T23:55:21.132Z,13.50
2017-09-29T23:57:47.124Z,13.50
